Time;durP1;ratioP1;P1;durP2;ratioP2;P2;SDS_P1;SDS_P2;PMS_P1;PMS_P2;Temp;Humidity;BMP_temperature;BMP_pressure;BME280_temperature;BME280_humidity;BME280_pressure;Samples;Min_cycle;Max_cycle;Signal;HPM_P1;HPM_P2
2023/07/23 00:01:56;;;;;;;16.10;6.37;;;;;;;26.65;67.00;94842.00;5055134;28;20591;-78
2023/07/23 00:04:22;;;;;;;21.10;6.53;;;;;;;26.70;66.79;94851.00;5055381;28;20450;-77
2023/07/23 00:06:49;;;;;;;16.63;7.60;;;;;;;26.68;67.78;94845.03;5055319;28;20462;-78
2023/07/23 00:09:16;;;;;;;19.00;7.97;;;;;;;26.64;67.12;94846.56;5055190;28;20449;-77
2023/07/23 00:11:43;;;;;;;17.10;8.07;;;;;;;26.61;67.69;94846.19;5055057;28;20476;-78
2023/07/23 00:14:11;;;;;;;13.20;7.57;;;;;;;26.56;68.20;94849.56;5054966;28;20457;-77
2023/07/23 00:16:38;;;;;;;16.23;7.57;;;;;;;26.51;67.49;94855.63;5055255;28;20803;-78
2023/07/23 00:19:05;;;;;;;16.20;6.70;;;;;;;26.46;67.52;94860.88;5055143;28;20453;-78
2023/07/23 00:21:32;;;;;;;17.30;7.77;;;;;;;26.40;68.07;94861.81;5054924;28;20445;-78
2023/07/23 00:23:58;;;;;;;14.77;6.97;;;;;;;26.37;67.72;94867.66;5055227;28;20451;-78
2023/07/23 00:26:27;;;;;;;9.23;6.80;;;;;;;26.35;68.59;94860.84;5054668;28;20453;-77
2023/07/23 00:28:53;;;;;;;20.03;8.17;;;;;;;26.29;67.07;94873.28;5054996;28;20445;-78
2023/07/23 00:31:22;;;;;;;18.83;7.60;;;;;;;26.26;68.08;94873.75;5054184;28;20484;-77
2023/07/23 00:33:48;;;;;;;19.03;7.00;;;;;;;26.19;68.15;94873.84;5054761;28;20441;-78
2023/07/23 00:36:15;;;;;;;11.30;6.30;;;;;;;26.16;68.02;94873.47;5054441;28;20494;-78
2023/07/23 00:38:42;;;;;;;8.93;6.10;;;;;;;26.13;67.99;94879.31;5019447;28;20454;-77
2023/07/23 00:41:09;;;;;;;12.10;7.10;;;;;;;26.08;68.08;94882.69;5019452;28;20461;-78
2023/07/23 00:43:35;;;;;;;15.23;6.90;;;;;;;26.12;68.81;94870.44;5035507;28;20442;-78
2023/07/23 00:46:02;;;;;;;15.73;6.80;;;;;;;26.14;68.53;94880.97;5054407;28;20990;-78
2023/07/23 00:48:30;;;;;;;13.00;7.03;;;;;;;26.18;68.34;94896.41;5054517;28;20454;-78
2023/07/23 00:50:58;;;;;;;15.70;7.20;;;;;;;26.17;68.54;94888.56;5054309;28;20813;-78
2023/07/23 00:53:25;;;;;;;19.60;7.03;;;;;;;26.13;67.92;94887.38;5054127;28;20446;-78
2023/07/23 00:55:53;;;;;;;14.10;6.50;;;;;;;26.13;67.61;94882.00;5054076;28;20859;-77
2023/07/23 00:58:20;;;;;;;26.53;7.50;;;;;;;26.09;67.78;94886.22;5054391;28;20453;-78
2023/07/23 01:00:47;;;;;;;17.00;6.83;;;;;;;26.11;68.30;94884.94;5054618;28;20472;-77
2023/07/23 01:03:14;;;;;;;12.70;7.37;;;;;;;26.05;67.06;94896.59;5054322;28;20451;-77
2023/07/23 01:05:49;;;;;;;15.63;7.47;;;;;;;26.07;68.27;94905.25;5054009;28;20493;-77
2023/07/23 01:08:16;;;;;;;14.40;6.77;;;;;;;26.04;67.78;94911.09;5054041;28;20452;-78
2023/07/23 01:10:43;;;;;;;15.37;7.37;;;;;;;26.06;68.50;94916.25;5054297;28;20452;-77
2023/07/23 01:13:09;;;;;;;15.30;7.50;;;;;;;25.99;67.84;94918.16;5053825;28;20511;-78
2023/07/23 01:15:37;;;;;;;12.47;6.30;;;;;;;25.96;67.45;94914.06;5053836;28;20511;-77
2023/07/23 01:18:07;;;;;;;17.20;7.40;;;;;;;26.00;68.74;94903.66;5053856;28;20453;-77
2023/07/23 01:20:34;;;;;;;18.97;7.27;;;;;;;25.97;66.94;94914.88;5053715;28;20943;-77
2023/07/23 01:23:04;;;;;;;14.57;8.40;;;;;;;25.92;67.50;94913.69;5053557;28;20438;-78
2023/07/23 01:25:30;;;;;;;12.90;6.10;;;;;;;25.91;68.56;94922.81;5034809;28;20438;-77
2023/07/23 01:27:57;;;;;;;16.30;7.47;;;;;;;25.87;68.58;94918.09;5053520;28;20465;-77
2023/07/23 01:30:24;;;;;;;17.67;7.30;;;;;;;25.86;68.26;94921.84;5053415;28;20952;-77
2023/07/23 01:32:52;;;;;;;15.30;6.87;;;;;;;25.88;68.12;94917.88;5053519;28;20452;-77
2023/07/23 01:35:24;;;;;;;9.20;6.10;;;;;;;25.80;69.11;94928.94;5053476;28;20486;-78
2023/07/23 01:37:52;;;;;;;9.93;7.30;;;;;;;25.82;68.51;94928.72;5053273;28;20529;-77
2023/07/23 01:40:20;;;;;;;19.33;7.30;;;;;;;25.84;69.46;94932.00;5053119;28;20951;-77
2023/07/23 01:42:50;;;;;;;17.17;6.30;;;;;;;25.83;69.09;94933.03;5053356;28;20501;-77
2023/07/23 01:45:17;;;;;;;13.37;6.87;;;;;;;25.79;69.06;94939.91;5053278;28;20833;-77
2023/07/23 01:47:44;;;;;;;11.83;7.33;;;;;;;25.76;68.57;94951.94;5053086;28;20442;-77
2023/07/23 01:50:11;;;;;;;13.23;7.07;;;;;;;25.74;68.23;94954.03;5018500;28;20441;-79
2023/07/23 01:52:38;;;;;;;20.17;8.43;;;;;;;25.74;68.96;94963.97;5053126;28;20442;-77
2023/07/23 01:55:05;;;;;;;17.97;6.90;;;;;;;25.76;69.06;94957.31;5053199;28;20485;-77
2023/07/23 01:57:34;;;;;;;23.13;9.40;;;;;;;25.82;67.82;94956.41;5053268;28;20977;-77
2023/07/23 02:00:00;;;;;;;11.73;6.77;;;;;;;25.80;67.33;94974.66;5053209;28;20449;-77
2023/07/23 02:02:27;;;;;;;13.03;6.40;;;;;;;25.78;66.60;94979.41;5052419;28;20457;-78
2023/07/23 02:04:54;;;;;;;10.87;7.77;;;;;;;25.66;67.13;94981.16;5053089;28;20476;-78
2023/07/23 02:07:23;;;;;;;10.90;5.87;;;;;;;25.60;67.78;94984.72;5052771;28;20446;-78
2023/07/23 02:09:50;;;;;;;19.70;7.70;;;;;;;25.49;67.69;94994.34;5053310;28;20512;-77
2023/07/23 02:12:18;;;;;;;11.73;7.23;;;;;;;25.39;68.21;94996.66;5018211;28;20460;-78
2023/07/23 02:14:46;;;;;;;14.20;7.17;;;;;;;25.38;67.81;94996.88;5052797;28;20450;-78
2023/07/23 02:17:13;;;;;;;15.70;7.30;;;;;;;25.39;68.46;95009.28;5053270;28;20442;-78
2023/07/23 02:19:40;;;;;;;11.23;6.47;;;;;;;25.39;68.71;95012.78;5034131;28;20456;-78
2023/07/23 02:22:07;;;;;;;14.03;6.53;;;;;;;25.35;70.23;95013.44;5053023;28;20449;-78
2023/07/23 02:24:33;;;;;;;10.00;6.63;;;;;;;25.38;69.23;95015.69;5053078;28;20449;-78
2023/07/23 02:27:00;;;;;;;14.57;7.27;;;;;;;25.37;70.38;95019.44;5053118;28;20454;-78
2023/07/23 02:29:27;;;;;;;24.33;7.77;;;;;;;25.37;71.21;95022.13;5052645;28;20450;-78
2023/07/23 02:31:55;;;;;;;16.23;6.87;;;;;;;25.33;71.07;95017.19;5052852;28;20485;-78
2023/07/23 02:34:22;;;;;;;19.80;7.67;;;;;;;25.31;71.47;95019.25;5052993;28;20443;-78
2023/07/23 02:36:49;;;;;;;11.10;7.40;;;;;;;25.32;72.08;95017.41;5033972;28;20858;-78
2023/07/23 02:39:18;;;;;;;13.43;7.20;;;;;;;25.27;71.92;95009.19;5017626;28;20441;-78
2023/07/23 02:41:45;;;;;;;11.73;7.30;;;;;;;25.26;72.71;95018.28;5053139;28;20472;-78
2023/07/23 02:44:12;;;;;;;15.10;8.07;;;;;;;25.26;73.05;95015.59;5052674;28;20782;-79
2023/07/23 02:46:38;;;;;;;15.90;7.50;;;;;;;25.33;74.33;95016.34;5052463;28;20461;-78
2023/07/23 02:49:07;;;;;;;12.63;6.90;;;;;;;25.38;73.53;95021.06;5052853;28;20457;-78
2023/07/23 02:51:33;;;;;;;11.33;6.30;;;;;;;25.43;72.87;95014.00;5033933;28;20442;-78
2023/07/23 02:54:00;;;;;;;13.50;6.50;;;;;;;25.48;71.81;95026.81;5052518;28;20507;-78
2023/07/23 02:56:27;;;;;;;13.50;7.03;;;;;;;25.51;71.27;95023.69;5052477;28;20971;-78
2023/07/23 02:58:54;;;;;;;12.27;6.57;;;;;;;25.48;71.71;95045.63;5052740;28;20448;-78
2023/07/23 03:01:21;;;;;;;11.50;6.60;;;;;;;25.40;70.90;95037.78;5052612;28;20506;-78
2023/07/23 03:03:49;;;;;;;13.33;7.63;;;;;;;25.36;71.50;95036.59;5052517;28;20446;-78
2023/07/23 03:06:17;;;;;;;9.60;6.73;;;;;;;25.28;72.11;95035.81;5052506;28;20457;-78
2023/07/23 03:08:44;;;;;;;19.97;8.23;;;;;;;25.20;73.57;95029.91;5052348;28;20457;-78
2023/07/23 03:11:11;;;;;;;15.33;10.13;;;;;;;25.07;75.95;95038.03;5052288;28;20446;-78
2023/07/23 03:13:38;;;;;;;14.33;12.30;;;;;;;25.05;76.63;95030.19;5054301;28;20447;-78
2023/07/23 03:16:05;;;;;;;16.50;12.00;;;;;;;25.01;77.61;95029.78;5056524;28;20491;-78
2023/07/23 03:18:32;;;;;;;20.00;12.07;;;;;;;25.01;77.39;95020.91;5021248;28;20455;-78
2023/07/23 03:20:58;;;;;;;18.43;12.57;;;;;;;25.10;77.64;95034.91;5037489;28;20430;-78
2023/07/23 03:23:27;;;;;;;21.43;13.70;;;;;;;25.07;77.48;95029.97;5056010;28;20951;-78
2023/07/23 03:25:54;;;;;;;18.20;12.30;;;;;;;25.10;78.00;95026.84;5056661;28;20477;-78
2023/07/23 03:28:20;;;;;;;18.30;13.40;;;;;;;25.09;78.13;95025.19;5056051;28;20452;-78
2023/07/23 03:30:47;;;;;;;19.57;13.73;;;;;;;25.17;77.82;95028.47;5056095;28;20488;-78
2023/07/23 03:33:14;;;;;;;15.40;12.50;;;;;;;25.31;76.87;95030.00;5055966;28;20461;-78
2023/07/23 03:35:41;;;;;;;15.83;12.77;;;;;;;25.38;76.48;95026.44;5055947;28;20485;-78
2023/07/23 03:38:07;;;;;;;24.50;13.20;;;;;;;25.51;76.06;95023.69;5055610;28;20445;-78
2023/07/23 03:40:36;;;;;;;16.73;13.53;;;;;;;25.70;75.25;95022.69;5056241;28;20511;-77
2023/07/23 03:43:03;;;;;;;25.27;12.50;;;;;;;25.84;73.89;95028.78;5037204;28;20430;-78
2023/07/23 03:45:30;;;;;;;17.30;12.67;;;;;;;25.91;73.54;95032.22;5055991;28;20445;-79
2023/07/23 03:47:56;;;;;;;16.47;13.53;;;;;;;26.02;72.79;95030.66;5055936;28;20464;-76
2023/07/23 03:50:23;;;;;;;20.60;12.80;;;;;;;26.12;72.79;95029.13;5055543;28;20806;-77
2023/07/23 03:52:50;;;;;;;14.27;12.80;;;;;;;26.22;71.91;95029.44;5051558;28;20462;-79
2023/07/23 03:55:17;;;;;;;17.60;12.70;;;;;;;26.44;71.73;95037.09;5052447;28;20449;-79
2023/07/23 03:57:45;;;;;;;22.10;12.60;;;;;;;26.65;69.84;95039.34;5054464;28;20962;-77
2023/07/23 04:00:14;;;;;;;16.43;12.43;;;;;;;26.79;69.29;95042.66;5052707;28;20453;-78
2023/07/23 04:02:41;;;;;;;16.23;12.00;;;;;;;27.04;68.49;95040.72;5055464;28;20484;-77
2023/07/23 04:05:09;;;;;;;18.83;12.33;;;;;;;27.37;67.23;95042.09;5054982;28;20508;-77
2023/07/23 04:07:36;;;;;;;16.53;12.30;;;;;;;27.66;65.75;95049.34;5055194;28;20943;-77
2023/07/23 04:10:04;;;;;;;18.47;12.40;;;;;;;27.98;64.27;95040.94;5055231;28;20457;-77
2023/07/23 04:12:33;;;;;;;15.90;9.07;;;;;;;28.22;63.55;95042.56;5055467;28;20511;-78
2023/07/23 04:15:01;;;;;;;18.90;9.90;;;;;;;28.54;61.52;95050.31;5055546;28;20866;-78
2023/07/23 04:17:28;;;;;;;15.03;9.20;;;;;;;28.81;60.17;95046.00;5054891;28;20496;-78
2023/07/23 04:19:55;;;;;;;18.60;9.07;;;;;;;29.03;59.52;95042.69;5055315;28;20831;-78
2023/07/23 04:22:22;;;;;;;14.53;8.23;;;;;;;29.25;59.79;95047.19;5055015;28;20927;-78
2023/07/23 04:24:48;;;;;;;16.63;8.27;;;;;;;29.43;58.23;95045.31;5055075;28;20457;-78
2023/07/23 04:27:15;;;;;;;27.03;8.30;;;;;;;29.60;57.74;95044.31;5054869;28;20464;-78
2023/07/23 04:29:42;;;;;;;18.60;8.57;;;;;;;29.75;56.79;95045.63;5054859;28;20453;-78
2023/07/23 04:32:12;;;;;;;14.87;8.73;;;;;;;29.81;56.64;95048.19;5054835;28;20461;-78
2023/07/23 04:34:40;;;;;;;13.63;9.60;;;;;;;29.89;56.64;95044.25;5055436;28;20833;-79
2023/07/23 04:37:07;;;;;;;18.53;8.50;;;;;;;30.02;56.10;95045.78;5055318;28;20551;-78
2023/07/23 04:39:34;;;;;;;16.42;9.18;;;;;;;30.25;55.41;95053.75;5054056;28;20431;-78
2023/07/23 04:42:01;;;;;;;12.67;8.80;;;;;;;30.38;55.01;95055.31;5054609;28;20661;-78
2023/07/23 04:44:28;;;;;;;11.87;8.97;;;;;;;30.53;54.56;95053.63;5035739;28;20442;-78
2023/07/23 04:46:54;;;;;;;19.00;10.10;;;;;;;30.68;53.88;95055.75;5054755;28;20485;-79
2023/07/23 04:49:23;;;;;;;13.07;10.10;;;;;;;30.67;53.53;95054.13;5054699;28;20445;-78
2023/07/23 04:51:49;;;;;;;16.00;11.93;;;;;;;30.66;52.43;95052.47;5054933;28;20449;-78
2023/07/23 04:54:16;;;;;;;14.20;12.70;;;;;;;30.74;53.13;95056.63;5054484;28;20453;-77
2023/07/23 04:56:43;;;;;;;17.40;12.33;;;;;;;30.81;53.15;95057.25;5054042;28;20481;-77
2023/07/23 04:59:10;;;;;;;15.33;13.70;;;;;;;30.79;51.87;95056.69;5054289;28;20449;-78
2023/07/23 05:01:37;;;;;;;14.20;11.97;;;;;;;30.77;53.10;95056.13;5054645;28;20774;-77
2023/07/23 05:04:04;;;;;;;15.00;13.50;;;;;;;30.84;52.53;95059.47;5054369;28;20536;-78
2023/07/23 05:06:32;;;;;;;14.23;12.93;;;;;;;30.75;51.96;95064.50;5054390;28;20920;-77
2023/07/23 05:08:59;;;;;;;13.17;11.80;;;;;;;30.58;54.47;95060.97;5019397;28;20499;-84
2023/07/23 05:11:26;;;;;;;15.57;13.97;;;;;;;30.75;52.31;95064.50;5019441;28;20460;-78
2023/07/23 05:13:53;;;;;;;17.40;14.30;;;;;;;30.87;52.01;95069.78;5054257;28;20450;-78
2023/07/23 05:16:19;;;;;;;16.90;13.70;;;;;;;30.94;51.59;95070.44;5053630;28;20485;-77
2023/07/23 05:18:46;;;;;;;17.77;13.10;;;;;;;30.91;53.66;95065.50;5053590;28;20450;-77
2023/07/23 05:21:13;;;;;;;14.63;12.40;;;;;;;30.83;50.42;95072.19;5054236;28;20437;-78
2023/07/23 05:23:43;;;;;;;14.30;12.77;;;;;;;30.63;51.71;95069.19;5054047;28;20999;-79
2023/07/23 05:26:10;;;;;;;18.80;13.90;;;;;;;30.85;50.56;95065.69;5053897;28;20442;-78
2023/07/23 05:28:36;;;;;;;14.50;13.07;;;;;;;30.65;51.21;95061.66;5054107;28;20857;-78
2023/07/23 05:31:04;;;;;;;15.43;13.20;;;;;;;30.75;54.19;95069.09;5053811;28;20478;-78
2023/07/23 05:33:31;;;;;;;13.30;12.00;;;;;;;30.70;51.57;95069.88;5053927;28;20943;-80
2023/07/23 05:35:58;;;;;;;14.00;12.60;;;;;;;30.68;51.68;95065.78;5053031;28;20464;-78
2023/07/23 05:38:26;;;;;;;16.70;13.10;;;;;;;31.01;51.08;95065.63;5018802;28;20445;-76
2023/07/23 05:40:56;;;;;;;14.33;12.87;;;;;;;31.10;51.00;95066.00;5053949;28;20504;-78
2023/07/23 05:43:23;;;;;;;13.27;11.80;;;;;;;30.83;49.41;95074.06;5053625;28;20454;-79
2023/07/23 05:45:50;;;;;;;12.53;11.30;;;;;;;30.70;50.52;95071.75;5053746;28;20437;-78
2023/07/23 05:48:18;;;;;;;17.17;12.00;;;;;;;30.71;51.06;95068.78;5053827;28;20448;-79
2023/07/23 05:50:45;;;;;;;14.33;12.93;;;;;;;30.77;50.15;95070.50;5053939;28;20442;-83
2023/07/23 05:53:12;;;;;;;12.43;11.13;;;;;;;31.16;51.15;95067.72;5052931;28;20461;-76
2023/07/23 05:55:39;;;;;;;13.27;11.90;;;;;;;31.60;51.62;95067.66;5053197;28;20453;-77
2023/07/23 05:58:10;;;;;;;17.50;11.87;;;;;;;31.89;48.28;95071.75;5053143;28;20489;-77
2023/07/23 06:00:38;;;;;;;13.77;12.30;;;;;;;31.77;50.82;95079.22;5018611;28;20473;-77
2023/07/23 06:03:05;;;;;;;15.60;13.83;;;;;;;31.46;51.88;95071.84;5052683;28;20446;-77
2023/07/23 06:05:32;;;;;;;14.47;13.10;;;;;;;31.33;52.63;95068.47;5017848;28;20923;-77
2023/07/23 06:07:58;;;;;;;18.03;14.40;;;;;;;31.33;53.13;95065.75;5034473;28;20820;-82
2023/07/23 06:10:25;;;;;;;16.90;15.20;;;;;;;31.08;53.81;95070.88;5053756;28;20453;-80
2023/07/23 06:12:52;;;;;;;17.57;14.80;;;;;;;31.05;54.67;95072.19;5053495;28;20940;-79
2023/07/23 06:15:23;;;;;;;16.70;13.90;;;;;;;31.22;54.33;95066.69;5053236;28;20904;-80
2023/07/23 06:17:50;;;;;;;15.47;13.97;;;;;;;31.20;54.91;95070.75;5053566;28;20489;-80
2023/07/23 06:20:19;;;;;;;16.47;14.43;;;;;;;31.38;54.56;95068.50;5053178;28;20503;-80
2023/07/23 06:22:46;;;;;;;17.60;14.00;;;;;;;31.63;53.28;95072.56;5053125;28;20442;-80
2023/07/23 06:25:13;;;;;;;19.20;14.00;;;;;;;32.01;53.40;95061.53;5052976;28;20449;-79
2023/07/23 06:27:40;;;;;;;14.60;12.73;;;;;;;32.28;52.26;95069.63;5053414;28;20445;-79
2023/07/23 06:30:08;;;;;;;19.07;13.13;;;;;;;32.51;51.07;95067.59;5052919;28;20473;-79
2023/07/23 06:32:36;;;;;;;21.00;14.10;;;;;;;32.60;51.63;95074.16;5018350;28;20450;-79
2023/07/23 06:35:04;;;;;;;15.60;12.37;;;;;;;32.77;47.77;95063.94;5052990;28;20446;-80
2023/07/23 06:37:33;;;;;;;12.43;10.93;;;;;;;32.79;49.20;95059.09;5053129;28;20497;-80
2023/07/23 06:40:00;;;;;;;16.33;11.10;;;;;;;32.71;46.61;95062.28;5052905;28;20454;-81
2023/07/23 06:42:27;;;;;;;16.90;11.50;;;;;;;32.54;47.82;95067.88;5053431;28;20821;-81
2023/07/23 06:44:56;;;;;;;12.77;10.83;;;;;;;32.92;48.45;95068.66;5053264;28;20449;-80
2023/07/23 06:47:25;;;;;;;14.70;10.13;;;;;;;33.21;46.75;95079.91;5054755;28;20441;-81
2023/07/23 06:49:54;;;;;;;14.90;11.67;;;;;;;33.37;46.09;95065.31;5057317;28;20453;-82
2023/07/23 06:52:21;;;;;;;10.30;9.20;;;;;;;33.51;46.23;95062.88;5056983;28;20457;-81
2023/07/23 06:54:48;;;;;;;12.07;10.60;;;;;;;33.58;44.96;95062.63;5056650;28;20448;-77
2023/07/23 06:57:15;;;;;;;11.27;9.50;;;;;;;33.05;46.07;95062.75;5056065;28;20488;-77
2023/07/23 06:59:41;;;;;;;14.13;10.47;;;;;;;33.02;46.89;95067.91;5056228;28;20452;-76
2023/07/23 07:02:08;;;;;;;10.90;9.30;;;;;;;33.08;45.88;95064.09;5055934;28;20460;-77
2023/07/23 07:04:35;;;;;;;12.90;9.80;;;;;;;32.81;46.46;95061.53;5056219;28;20446;-77
2023/07/23 07:07:06;;;;;;;14.60;9.80;;;;;;;32.81;45.31;95062.34;5056191;28;20449;-76
2023/07/23 07:09:33;;;;;;;13.27;9.37;;;;;;;32.92;45.64;95065.94;5055881;28;20790;-76
2023/07/23 07:12:00;;;;;;;10.63;8.70;;;;;;;33.02;44.34;95074.16;5020949;28;20790;-82
2023/07/23 07:14:26;;;;;;;10.00;9.00;;;;;;;33.23;42.83;95081.28;5020901;28;20442;-77
2023/07/23 07:16:53;;;;;;;10.63;8.10;;;;;;;33.47;40.56;95070.75;5055968;28;20494;-76
2023/07/23 07:19:23;;;;;;;10.33;8.77;;;;;;;33.58;41.57;95071.63;5020270;28;20458;-76
2023/07/23 07:21:54;;;;;;;10.43;9.33;;;;;;;33.33;41.35;95068.84;5037435;28;20441;-76
2023/07/23 07:24:24;;;;;;;11.53;9.00;;;;;;;33.09;42.09;95074.72;5055718;28;20507;-76
2023/07/23 07:26:51;;;;;;;9.87;8.30;;;;;;;33.11;42.09;95079.88;5056053;28;20449;-76
2023/07/23 07:29:19;;;;;;;13.37;8.77;;;;;;;32.81;40.83;95069.69;5055442;28;20788;-76
2023/07/23 07:31:48;;;;;;;8.87;7.90;;;;;;;32.78;41.86;95067.47;5055765;28;20484;-76
2023/07/23 07:34:14;;;;;;;10.10;7.53;;;;;;;32.96;41.96;95072.47;5055560;28;20449;-77
2023/07/23 07:36:41;;;;;;;13.27;8.70;;;;;;;33.01;41.70;95067.06;5054410;28;20486;-77
2023/07/23 07:39:08;;;;;;;12.60;8.70;;;;;;;32.89;40.95;95072.72;5054921;28;20503;-76
2023/07/23 07:41:36;;;;;;;10.50;9.00;;;;;;;32.25;43.48;95077.44;5054831;28;20449;-78
2023/07/23 07:44:03;;;;;;;10.00;7.90;;;;;;;32.23;42.68;95064.13;5054786;28;20529;-78
2023/07/23 07:46:30;;;;;;;8.77;7.60;;;;;;;31.98;41.69;95053.06;5035907;28;20450;-76
2023/07/23 07:48:57;;;;;;;11.03;8.50;;;;;;;32.14;43.08;95057.56;5054793;28;20453;-76
2023/07/23 07:51:23;;;;;;;9.60;8.03;;;;;;;32.30;41.99;95066.66;5054759;28;20944;-78
2023/07/23 07:53:50;;;;;;;8.90;8.00;;;;;;;32.41;41.13;95062.94;5054631;28;20449;-78
2023/07/23 07:56:18;;;;;;;7.90;7.10;;;;;;;32.39;40.60;95059.66;5054876;28;20450;-78
2023/07/23 07:58:47;;;;;;;7.60;6.80;;;;;;;32.23;39.64;95055.16;5053702;28;20520;-77
2023/07/23 08:01:14;;;;;;;9.63;6.90;;;;;;;32.42;40.29;95067.28;5054747;28;20492;-78
2023/07/23 08:03:49;;;;;;;11.63;6.07;;;;;;;32.35;39.56;95053.09;5054642;28;20975;-78
2023/07/23 08:06:18;;;;;;;9.43;7.37;;;;;;;32.36;39.31;95057.44;5054381;28;20456;-78
2023/07/23 08:08:47;;;;;;;8.60;7.80;;;;;;;32.31;40.14;95057.41;5054525;28;20453;-77
2023/07/23 08:11:13;;;;;;;13.60;7.90;;;;;;;32.59;40.50;95064.38;5054680;28;20442;-78
2023/07/23 08:13:41;;;;;;;9.70;6.80;;;;;;;32.16;39.63;95057.28;5054855;28;20445;-78
2023/07/23 08:16:12;;;;;;;8.40;6.30;;;;;;;32.25;39.56;95064.72;5054472;28;20519;-78
2023/07/23 08:18:39;;;;;;;11.67;8.53;;;;;;;31.95;40.76;95070.72;5054665;28;20878;-78
2023/07/23 08:21:07;;;;;;;7.60;6.90;;;;;;;31.55;41.37;95063.00;5054028;28;20445;-77
2023/07/23 08:23:35;;;;;;;8.33;7.13;;;;;;;31.67;40.85;95060.13;5054152;28;20494;-78
2023/07/23 08:26:04;;;;;;;11.50;6.83;;;;;;;31.94;40.62;95069.06;5054190;28;20453;-78
2023/07/23 08:28:34;;;;;;;9.77;7.70;;;;;;;31.90;40.44;95064.41;5054238;28;20791;-78
2023/07/23 08:31:01;;;;;;;8.20;7.30;;;;;;;31.89;40.58;95071.75;5053884;28;20478;-78
2023/07/23 08:33:31;;;;;;;8.30;7.50;;;;;;;32.05;40.01;95078.91;5053957;28;20445;-78
2023/07/23 08:35:58;;;;;;;8.93;8.00;;;;;;;32.07;40.55;95078.66;5053882;28;20847;-78
2023/07/23 08:38:26;;;;;;;8.27;7.43;;;;;;;32.00;41.21;95068.03;5053669;28;20493;-78
2023/07/23 08:40:58;;;;;;;10.50;9.30;;;;;;;32.30;41.72;95070.19;5053663;28;20457;-78
2023/07/23 08:44:09;;;;;;;8.43;7.17;;;;;;;32.45;39.14;95068.66;5053856;28;20481;-78
2023/07/23 08:46:44;;;;;;;10.30;7.50;;;;;;;32.50;38.18;95064.06;5053531;28;20536;-78
2023/07/23 08:49:13;;;;;;;9.47;7.60;;;;;;;32.50;37.80;95066.78;5053717;28;20492;-78
2023/07/23 08:51:44;;;;;;;10.70;7.70;;;;;;;32.60;38.31;95061.41;5053463;28;20450;-78
2023/07/23 08:54:12;;;;;;;9.00;8.10;;;;;;;32.68;39.01;95046.50;5053914;28;20449;-78
2023/07/23 08:56:40;;;;;;;9.00;7.70;;;;;;;32.66;39.12;95054.09;5053519;28;20438;-77
2023/07/23 08:59:08;;;;;;;7.97;6.90;;;;;;;32.35;38.42;95061.25;5053571;28;20535;-78
2023/07/23 09:01:37;;;;;;;12.67;7.73;;;;;;;32.18;38.36;95047.81;5053616;28;20507;-78
2023/07/23 09:04:06;;;;;;;8.83;6.90;;;;;;;32.18;38.09;95055.13;5018132;28;20438;-78
2023/07/23 09:06:34;;;;;;;11.53;6.33;;;;;;;32.14;38.55;95046.69;5053312;28;20434;-78
2023/07/23 09:09:06;;;;;;;12.03;7.13;;;;;;;32.33;38.98;95056.06;5053450;28;20441;-78
2023/07/23 09:11:34;;;;;;;7.90;6.70;;;;;;;32.28;37.88;95055.22;5052064;28;20947;-77
2023/07/23 09:14:02;;;;;;;8.90;7.67;;;;;;;32.34;37.30;95052.28;5053522;28;20450;-78
2023/07/23 09:16:29;;;;;;;13.13;8.70;;;;;;;32.35;37.82;95053.91;5017929;28;20829;-77
2023/07/23 09:18:55;;;;;;;10.23;7.80;;;;;;;32.58;38.22;95055.41;5053253;28;20492;-78
2023/07/23 09:21:27;;;;;;;10.73;7.17;;;;;;;32.74;36.80;95050.88;5053078;28;20449;-78
2023/07/23 09:23:57;;;;;;;8.10;7.33;;;;;;;32.66;37.03;95054.91;5052961;28;20446;-78
2023/07/23 09:26:25;;;;;;;8.93;7.07;;;;;;;32.61;37.05;95057.59;4985711;28;20422;-77
2023/07/23 09:28:53;;;;;;;7.60;6.43;;;;;;;32.64;38.35;95059.78;5034118;28;20422;-78
2023/07/23 09:31:26;;;;;;;8.87;7.90;;;;;;;32.41;37.74;95064.84;5017828;28;20477;-78
2023/07/23 09:33:57;;;;;;;8.37;6.93;;;;;;;32.10;37.55;95056.44;5052862;28;20454;-78
2023/07/23 09:36:25;;;;;;;11.17;8.70;;;;;;;31.88;38.23;95061.16;5017345;28;20928;-75
2023/07/23 09:38:58;;;;;;;14.70;7.50;;;;;;;31.75;38.06;95056.94;5017301;28;20485;-77
2023/07/23 09:41:30;;;;;;;11.47;7.73;;;;;;;31.93;38.45;95047.63;5052817;28;20441;-77
2023/07/23 09:44:00;;;;;;;9.10;6.73;;;;;;;31.83;37.46;95055.69;5052550;28;20544;-78
2023/07/23 09:46:27;;;;;;;9.13;7.80;;;;;;;31.88;37.84;95056.53;5052407;28;20446;-78
2023/07/23 09:48:54;;;;;;;12.33;9.10;;;;;;;31.89;36.82;95055.47;5017035;28;20808;-78
2023/07/23 09:51:21;;;;;;;11.40;7.77;;;;;;;31.60;36.65;95043.22;5052701;28;20449;-78
2023/07/23 09:53:48;;;;;;;8.70;7.60;;;;;;;31.54;37.21;95049.69;5052711;28;20467;-78
2023/07/23 09:56:17;;;;;;;10.50;7.40;;;;;;;31.64;38.37;95047.88;5052440;28;20461;-78
2023/07/23 09:58:47;;;;;;;10.73;8.10;;;;;;;31.68;37.58;95042.75;5052226;28;20489;-78
2023/07/23 10:01:14;;;;;;;11.47;8.83;;;;;;;31.82;37.77;95044.00;5017152;28;20515;-78
2023/07/23 10:03:41;;;;;;;9.93;8.00;;;;;;;31.91;36.01;95030.78;5052431;28;20445;-78
2023/07/23 10:06:11;;;;;;;11.10;8.50;;;;;;;31.87;36.27;95030.47;5052281;28;20437;-78
2023/07/23 10:08:41;;;;;;;9.93;8.87;;;;;;;31.94;36.68;95044.63;5052263;28;20462;-78
2023/07/23 10:11:08;;;;;;;12.07;9.00;;;;;;;31.90;34.96;95037.28;5052412;28;20807;-78
2023/07/23 10:13:37;;;;;;;11.73;7.87;;;;;;;31.72;35.52;95038.47;5052016;28;20818;-78
2023/07/23 10:16:06;;;;;;;9.17;8.27;;;;;;;31.82;35.79;95040.47;5052041;28;20446;-77
2023/07/23 10:18:36;;;;;;;11.03;8.10;;;;;;;31.90;35.60;95027.25;5052173;28;20489;-78
2023/07/23 10:21:06;;;;;;;9.90;8.30;;;;;;;31.88;35.34;95032.09;5033183;28;20446;-78
2023/07/23 10:23:33;;;;;;;8.23;7.43;;;;;;;31.97;35.63;95024.28;5051982;28;20943;-78
2023/07/23 10:26:19;;;;;;;11.87;7.97;;;;;;;31.98;35.58;95020.50;5051947;28;20446;-78
2023/07/23 10:28:48;;;;;;;9.80;7.93;;;;;;;31.85;36.50;95027.19;5051807;28;20879;-77
2023/07/23 10:31:23;;;;;;;10.70;8.70;;;;;;;31.76;35.86;95028.72;5051767;28;20520;-78
2023/07/23 10:33:51;;;;;;;14.33;8.83;;;;;;;31.56;36.51;95017.69;5051684;28;20444;-78
2023/07/23 10:36:21;;;;;;;15.80;9.10;;;;;;;31.47;37.26;95019.22;5032897;28;20472;-78
2023/07/23 10:38:49;;;;;;;12.03;8.93;;;;;;;31.40;36.15;95014.81;5051822;28;20481;-78
2023/07/23 10:41:16;;;;;;;12.40;8.70;;;;;;;31.37;37.59;95014.53;5051586;28;20452;-77
2023/07/23 10:43:48;;;;;;;12.27;9.60;;;;;;;31.33;36.91;95024.25;5052237;28;20785;-78
2023/07/23 10:46:18;;;;;;;14.30;8.77;;;;;;;31.35;37.15;95013.97;5016852;28;20485;-78
2023/07/23 10:48:48;;;;;;;14.47;8.50;;;;;;;31.48;36.98;95010.81;5051597;28;20454;-78
2023/07/23 10:51:16;;;;;;;17.00;9.57;;;;;;;31.49;37.04;95009.75;5051593;28;20532;-78
2023/07/23 10:53:55;;;;;;;16.10;9.77;;;;;;;31.46;36.42;95012.97;5051647;28;20449;-78
2023/07/23 10:56:24;;;;;;;16.70;11.23;;;;;;;31.47;36.67;95011.91;5051666;28;20528;-78
2023/07/23 10:58:56;;;;;;;21.73;11.13;;;;;;;31.58;36.81;95010.94;5051637;28;20504;-78
2023/07/23 11:01:23;;;;;;;13.73;9.70;;;;;;;31.42;35.27;95017.28;5051522;28;20450;-78
2023/07/23 11:03:53;;;;;;;16.03;9.30;;;;;;;31.56;36.16;95017.69;5051415;28;20438;-77
2023/07/23 11:06:30;;;;;;;17.27;9.93;;;;;;;31.55;35.94;95016.88;5051450;28;20450;-78
2023/07/23 11:08:59;;;;;;;13.20;9.87;;;;;;;31.63;36.78;95021.00;5051438;28;20484;-77
2023/07/23 11:11:32;;;;;;;13.83;10.23;;;;;;;31.55;36.77;95016.06;5051314;28;20437;-78
2023/07/23 11:14:00;;;;;;;12.87;9.33;;;;;;;31.64;36.35;95007.19;5051264;28;20940;-78
2023/07/23 11:16:27;;;;;;;10.83;8.73;;;;;;;31.71;36.12;95009.69;5032508;28;20438;-78
2023/07/23 11:18:55;;;;;;;14.30;9.00;;;;;;;31.81;36.28;95012.53;5051580;28;20517;-78
2023/07/23 11:21:27;;;;;;;12.30;10.20;;;;;;;31.65;35.39;95002.56;5051268;28;20448;-78
2023/07/23 11:23:54;;;;;;;14.10;10.23;;;;;;;31.71;35.90;95010.53;5017773;28;20451;-78
2023/07/23 11:26:21;;;;;;;12.53;10.10;;;;;;;31.61;35.31;95012.31;5049147;28;20438;-78
2023/07/23 11:28:48;;;;;;;15.13;10.60;;;;;;;31.54;35.36;95011.72;5051202;28;20437;-77